sensor_id;sensor_type;location;lat;lon;timestamp;P1;durP1;ratioP1;P2;durP2;ratioP2
12925;SDS011;6529;50.566;9.774;2023-09-30T00:01:08;2.33;;;1.30;;
12925;SDS011;6529;50.566;9.774;2023-09-30T00:03:35;3.53;;;1.50;;
12925;SDS011;6529;50.566;9.774;2023-09-30T00:06:01;2.87;;;1.63;;
12925;SDS011;6529;50.566;9.774;2023-09-30T00:08:26;2.87;;;1.37;;
12925;SDS011;6529;50.566;9.774;2023-09-30T00:10:52;4.27;;;1.70;;
12925;SDS011;6529;50.566;9.774;2023-09-30T00:13:19;3.70;;;1.63;;
12925;SDS011;6529;50.566;9.774;2023-09-30T00:15:44;2.80;;;1.70;;
12925;SDS011;6529;50.566;9.774;2023-09-30T00:18:10;2.60;;;1.40;;
12925;SDS011;6529;50.566;9.774;2023-09-30T00:20:35;3.20;;;1.50;;
12925;SDS011;6529;50.566;9.774;2023-09-30T00:23:01;2.17;;;1.40;;
12925;SDS011;6529;50.566;9.774;2023-09-30T00:25:27;4.73;;;1.80;;
12925;SDS011;6529;50.566;9.774;2023-09-30T00:27:52;3.47;;;1.80;;
12925;SDS011;6529;50.566;9.774;2023-09-30T00:30:18;3.90;;;1.70;;
12925;SDS011;6529;50.566;9.774;2023-09-30T00:32:44;2.83;;;1.27;;
12925;SDS011;6529;50.566;9.774;2023-09-30T00:35:09;3.60;;;1.57;;
12925;SDS011;6529;50.566;9.774;2023-09-30T00:37:39;4.20;;;1.50;;
12925;SDS011;6529;50.566;9.774;2023-09-30T00:40:06;4.17;;;1.67;;
12925;SDS011;6529;50.566;9.774;2023-09-30T00:42:36;3.17;;;1.37;;
12925;SDS011;6529;50.566;9.774;2023-09-30T00:45:03;3.43;;;1.60;;
12925;SDS011;6529;50.566;9.774;2023-09-30T00:47:30;4.27;;;1.83;;
12925;SDS011;6529;50.566;9.774;2023-09-30T00:49:56;2.07;;;1.40;;
12925;SDS011;6529;50.566;9.774;2023-09-30T00:52:21;4.83;;;1.67;;
12925;SDS011;6529;50.566;9.774;2023-09-30T00:54:47;4.63;;;2.00;;
12925;SDS011;6529;50.566;9.774;2023-09-30T00:57:14;2.63;;;1.67;;
12925;SDS011;6529;50.566;9.774;2023-09-30T00:59:41;2.97;;;1.50;;
12925;SDS011;6529;50.566;9.774;2023-09-30T01:02:07;3.13;;;1.53;;
12925;SDS011;6529;50.566;9.774;2023-09-30T01:04:33;3.87;;;2.10;;
12925;SDS011;6529;50.566;9.774;2023-09-30T01:06:58;2.63;;;1.73;;
12925;SDS011;6529;50.566;9.774;2023-09-30T01:09:24;3.67;;;1.70;;
12925;SDS011;6529;50.566;9.774;2023-09-30T01:11:50;3.27;;;1.80;;
12925;SDS011;6529;50.566;9.774;2023-09-30T01:14:26;5.43;;;1.90;;
12925;SDS011;6529;50.566;9.774;2023-09-30T01:16:55;2.57;;;1.40;;
12925;SDS011;6529;50.566;9.774;2023-09-30T01:19:21;6.43;;;1.67;;
12925;SDS011;6529;50.566;9.774;2023-09-30T01:21:50;2.90;;;1.60;;
12925;SDS011;6529;50.566;9.774;2023-09-30T01:24:21;3.53;;;1.50;;
12925;SDS011;6529;50.566;9.774;2023-09-30T01:26:47;3.63;;;1.60;;
12925;SDS011;6529;50.566;9.774;2023-09-30T01:29:13;3.53;;;1.50;;
12925;SDS011;6529;50.566;9.774;2023-09-30T01:31:39;3.97;;;1.73;;
12925;SDS011;6529;50.566;9.774;2023-09-30T01:34:05;1.63;;;1.37;;
12925;SDS011;6529;50.566;9.774;2023-09-30T01:36:31;4.63;;;1.80;;
12925;SDS011;6529;50.566;9.774;2023-09-30T01:38:57;3.13;;;1.70;;
12925;SDS011;6529;50.566;9.774;2023-09-30T01:41:22;3.20;;;1.77;;
12925;SDS011;6529;50.566;9.774;2023-09-30T01:43:48;3.57;;;1.50;;
12925;SDS011;6529;50.566;9.774;2023-09-30T01:46:14;3.73;;;1.60;;
12925;SDS011;6529;50.566;9.774;2023-09-30T01:48:39;3.47;;;1.37;;
12925;SDS011;6529;50.566;9.774;2023-09-30T01:51:05;3.30;;;1.77;;
12925;SDS011;6529;50.566;9.774;2023-09-30T01:53:31;4.20;;;1.80;;
12925;SDS011;6529;50.566;9.774;2023-09-30T01:55:57;4.37;;;1.43;;
12925;SDS011;6529;50.566;9.774;2023-09-30T01:58:23;2.33;;;1.30;;
12925;SDS011;6529;50.566;9.774;2023-09-30T02:00:49;5.03;;;2.53;;
12925;SDS011;6529;50.566;9.774;2023-09-30T02:03:15;1.93;;;1.27;;
12925;SDS011;6529;50.566;9.774;2023-09-30T02:05:42;2.00;;;1.30;;
12925;SDS011;6529;50.566;9.774;2023-09-30T02:08:08;2.90;;;1.50;;
12925;SDS011;6529;50.566;9.774;2023-09-30T02:10:33;4.53;;;1.60;;
12925;SDS011;6529;50.566;9.774;2023-09-30T02:12:59;2.70;;;1.50;;
12925;SDS011;6529;50.566;9.774;2023-09-30T02:15:25;3.30;;;1.50;;
12925;SDS011;6529;50.566;9.774;2023-09-30T02:17:50;3.07;;;1.43;;
12925;SDS011;6529;50.566;9.774;2023-09-30T02:20:17;3.00;;;1.57;;
12925;SDS011;6529;50.566;9.774;2023-09-30T02:22:46;2.60;;;1.70;;
12925;SDS011;6529;50.566;9.774;2023-09-30T02:25:13;4.13;;;1.80;;
12925;SDS011;6529;50.566;9.774;2023-09-30T02:27:40;3.77;;;1.60;;
12925;SDS011;6529;50.566;9.774;2023-09-30T02:30:07;2.23;;;1.60;;
12925;SDS011;6529;50.566;9.774;2023-09-30T02:32:35;3.33;;;1.70;;
12925;SDS011;6529;50.566;9.774;2023-09-30T02:35:01;3.77;;;1.77;;
12925;SDS011;6529;50.566;9.774;2023-09-30T02:37:27;3.33;;;1.80;;
12925;SDS011;6529;50.566;9.774;2023-09-30T02:39:53;2.90;;;1.80;;
12925;SDS011;6529;50.566;9.774;2023-09-30T02:42:18;2.37;;;1.73;;
12925;SDS011;6529;50.566;9.774;2023-09-30T02:44:45;6.43;;;2.20;;
12925;SDS011;6529;50.566;9.774;2023-09-30T02:47:10;4.70;;;2.00;;
12925;SDS011;6529;50.566;9.774;2023-09-30T02:49:36;4.00;;;1.80;;
12925;SDS011;6529;50.566;9.774;2023-09-30T02:52:02;3.90;;;2.17;;
12925;SDS011;6529;50.566;9.774;2023-09-30T02:54:29;3.13;;;1.90;;
12925;SDS011;6529;50.566;9.774;2023-09-30T02:56:56;3.63;;;1.80;;
12925;SDS011;6529;50.566;9.774;2023-09-30T02:59:21;2.70;;;1.97;;
12925;SDS011;6529;50.566;9.774;2023-09-30T03:01:47;3.50;;;2.10;;
12925;SDS011;6529;50.566;9.774;2023-09-30T03:04:13;4.47;;;1.77;;
12925;SDS011;6529;50.566;9.774;2023-09-30T03:06:38;4.30;;;1.77;;
12925;SDS011;6529;50.566;9.774;2023-09-30T03:09:04;3.77;;;1.70;;
12925;SDS011;6529;50.566;9.774;2023-09-30T03:11:30;4.33;;;1.80;;
12925;SDS011;6529;50.566;9.774;2023-09-30T03:13:56;5.10;;;2.20;;
12925;SDS011;6529;50.566;9.774;2023-09-30T03:16:22;3.43;;;1.77;;
12925;SDS011;6529;50.566;9.774;2023-09-30T03:18:49;5.50;;;2.20;;
12925;SDS011;6529;50.566;9.774;2023-09-30T03:21:15;3.97;;;2.00;;
12925;SDS011;6529;50.566;9.774;2023-09-30T03:23:42;3.03;;;1.83;;
12925;SDS011;6529;50.566;9.774;2023-09-30T03:26:08;3.00;;;1.63;;
12925;SDS011;6529;50.566;9.774;2023-09-30T03:28:37;4.20;;;1.80;;
12925;SDS011;6529;50.566;9.774;2023-09-30T03:31:03;3.17;;;1.97;;
12925;SDS011;6529;50.566;9.774;2023-09-30T03:33:32;3.37;;;2.00;;
12925;SDS011;6529;50.566;9.774;2023-09-30T03:35:59;5.47;;;2.30;;
12925;SDS011;6529;50.566;9.774;2023-09-30T03:38:25;5.77;;;2.10;;
12925;SDS011;6529;50.566;9.774;2023-09-30T03:40:51;3.90;;;2.00;;
12925;SDS011;6529;50.566;9.774;2023-09-30T03:43:19;3.67;;;1.80;;
12925;SDS011;6529;50.566;9.774;2023-09-30T03:45:46;5.10;;;2.10;;
12925;SDS011;6529;50.566;9.774;2023-09-30T03:48:11;3.50;;;2.33;;
12925;SDS011;6529;50.566;9.774;2023-09-30T03:50:37;3.77;;;2.10;;
12925;SDS011;6529;50.566;9.774;2023-09-30T03:53:03;3.43;;;2.03;;
12925;SDS011;6529;50.566;9.774;2023-09-30T03:55:30;5.57;;;1.87;;
12925;SDS011;6529;50.566;9.774;2023-09-30T03:57:57;6.00;;;2.23;;
12925;SDS011;6529;50.566;9.774;2023-09-30T04:00:22;5.40;;;1.93;;
12925;SDS011;6529;50.566;9.774;2023-09-30T04:02:49;3.93;;;2.00;;
12925;SDS011;6529;50.566;9.774;2023-09-30T04:05:18;3.20;;;1.83;;
12925;SDS011;6529;50.566;9.774;2023-09-30T04:07:49;3.63;;;1.93;;
12925;SDS011;6529;50.566;9.774;2023-09-30T04:10:14;4.00;;;2.03;;
12925;SDS011;6529;50.566;9.774;2023-09-30T04:12:40;7.23;;;2.10;;
12925;SDS011;6529;50.566;9.774;2023-09-30T04:15:06;3.93;;;1.90;;
12925;SDS011;6529;50.566;9.774;2023-09-30T04:17:32;3.53;;;2.00;;
12925;SDS011;6529;50.566;9.774;2023-09-30T04:19:58;4.90;;;1.80;;
12925;SDS011;6529;50.566;9.774;2023-09-30T04:22:23;3.17;;;1.83;;
12925;SDS011;6529;50.566;9.774;2023-09-30T04:24:50;4.63;;;2.10;;
12925;SDS011;6529;50.566;9.774;2023-09-30T04:27:16;6.50;;;2.50;;
12925;SDS011;6529;50.566;9.774;2023-09-30T04:29:42;4.07;;;2.00;;
12925;SDS011;6529;50.566;9.774;2023-09-30T04:32:08;4.17;;;2.20;;
12925;SDS011;6529;50.566;9.774;2023-09-30T04:34:34;5.63;;;1.90;;
12925;SDS011;6529;50.566;9.774;2023-09-30T04:37:00;3.53;;;2.00;;
12925;SDS011;6529;50.566;9.774;2023-09-30T04:39:26;4.10;;;1.80;;
12925;SDS011;6529;50.566;9.774;2023-09-30T04:41:52;3.67;;;1.80;;
12925;SDS011;6529;50.566;9.774;2023-09-30T04:44:18;5.57;;;2.00;;
12925;SDS011;6529;50.566;9.774;2023-09-30T04:46:44;5.10;;;2.00;;
12925;SDS011;6529;50.566;9.774;2023-09-30T04:49:14;5.03;;;2.10;;
12925;SDS011;6529;50.566;9.774;2023-09-30T04:51:40;4.57;;;2.37;;
12925;SDS011;6529;50.566;9.774;2023-09-30T04:54:05;5.40;;;2.30;;
12925;SDS011;6529;50.566;9.774;2023-09-30T04:56:35;5.77;;;2.10;;
12925;SDS011;6529;50.566;9.774;2023-09-30T04:59:01;5.57;;;2.13;;
12925;SDS011;6529;50.566;9.774;2023-09-30T05:01:27;2.80;;;2.00;;
12925;SDS011;6529;50.566;9.774;2023-09-30T05:03:53;2.73;;;2.00;;
12925;SDS011;6529;50.566;9.774;2023-09-30T05:06:19;6.27;;;2.23;;
12925;SDS011;6529;50.566;9.774;2023-09-30T05:08:44;6.03;;;2.23;;
12925;SDS011;6529;50.566;9.774;2023-09-30T05:11:10;3.03;;;1.60;;
12925;SDS011;6529;50.566;9.774;2023-09-30T05:13:35;3.23;;;2.07;;
12925;SDS011;6529;50.566;9.774;2023-09-30T05:16:01;4.53;;;1.97;;
12925;SDS011;6529;50.566;9.774;2023-09-30T05:18:28;5.93;;;1.93;;
12925;SDS011;6529;50.566;9.774;2023-09-30T05:20:54;4.00;;;2.07;;
12925;SDS011;6529;50.566;9.774;2023-09-30T05:23:20;2.83;;;1.53;;
12925;SDS011;6529;50.566;9.774;2023-09-30T05:25:45;2.73;;;1.67;;
12925;SDS011;6529;50.566;9.774;2023-09-30T05:28:11;3.07;;;1.90;;
12925;SDS011;6529;50.566;9.774;2023-09-30T05:30:38;2.90;;;1.70;;
12925;SDS011;6529;50.566;9.774;2023-09-30T05:33:05;4.53;;;2.00;;
12925;SDS011;6529;50.566;9.774;2023-09-30T05:35:31;3.70;;;2.00;;
12925;SDS011;6529;50.566;9.774;2023-09-30T05:37:57;3.37;;;1.73;;
12925;SDS011;6529;50.566;9.774;2023-09-30T05:40:23;4.03;;;1.90;;
12925;SDS011;6529;50.566;9.774;2023-09-30T05:42:51;2.33;;;1.60;;
12925;SDS011;6529;50.566;9.774;2023-09-30T05:45:24;4.63;;;2.20;;
12925;SDS011;6529;50.566;9.774;2023-09-30T05:47:55;5.17;;;2.27;;
12925;SDS011;6529;50.566;9.774;2023-09-30T05:50:23;5.03;;;2.03;;
12925;SDS011;6529;50.566;9.774;2023-09-30T05:52:50;3.87;;;2.17;;
12925;SDS011;6529;50.566;9.774;2023-09-30T05:55:16;4.30;;;2.00;;
12925;SDS011;6529;50.566;9.774;2023-09-30T05:57:46;4.77;;;2.13;;
12925;SDS011;6529;50.566;9.774;2023-09-30T06:00:15;4.13;;;1.90;;
12925;SDS011;6529;50.566;9.774;2023-09-30T06:03:07;3.83;;;1.80;;
12925;SDS011;6529;50.566;9.774;2023-09-30T06:05:33;4.23;;;2.30;;
12925;SDS011;6529;50.566;9.774;2023-09-30T06:08:03;5.53;;;2.23;;
12925;SDS011;6529;50.566;9.774;2023-09-30T06:10:29;5.83;;;2.50;;
12925;SDS011;6529;50.566;9.774;2023-09-30T06:12:55;5.07;;;2.40;;
12925;SDS011;6529;50.566;9.774;2023-09-30T06:15:22;5.43;;;2.20;;
12925;SDS011;6529;50.566;9.774;2023-09-30T06:17:51;5.17;;;2.17;;
12925;SDS011;6529;50.566;9.774;2023-09-30T06:20:18;4.43;;;2.00;;
12925;SDS011;6529;50.566;9.774;2023-09-30T06:22:44;5.00;;;2.37;;
12925;SDS011;6529;50.566;9.774;2023-09-30T06:25:10;4.87;;;2.30;;
12925;SDS011;6529;50.566;9.774;2023-09-30T06:27:41;4.87;;;2.37;;
12925;SDS011;6529;50.566;9.774;2023-09-30T06:30:13;3.47;;;2.00;;
12925;SDS011;6529;50.566;9.774;2023-09-30T06:32:40;4.30;;;2.60;;
12925;SDS011;6529;50.566;9.774;2023-09-30T06:35:06;5.80;;;2.40;;
12925;SDS011;6529;50.566;9.774;2023-09-30T06:37:35;5.33;;;2.50;;
12925;SDS011;6529;50.566;9.774;2023-09-30T06:40:01;3.60;;;2.30;;
12925;SDS011;6529;50.566;9.774;2023-09-30T06:42:29;8.77;;;2.40;;
12925;SDS011;6529;50.566;9.774;2023-09-30T06:44:56;4.60;;;2.50;;
12925;SDS011;6529;50.566;9.774;2023-09-30T06:47:22;5.27;;;2.50;;
12925;SDS011;6529;50.566;9.774;2023-09-30T06:49:49;5.50;;;2.40;;
12925;SDS011;6529;50.566;9.774;2023-09-30T06:52:14;3.90;;;2.40;;
12925;SDS011;6529;50.566;9.774;2023-09-30T06:54:40;4.17;;;2.30;;
12925;SDS011;6529;50.566;9.774;2023-09-30T06:57:05;3.43;;;2.20;;
12925;SDS011;6529;50.566;9.774;2023-09-30T06:59:34;4.53;;;2.13;;
12925;SDS011;6529;50.566;9.774;2023-09-30T07:01:59;4.40;;;1.93;;
12925;SDS011;6529;50.566;9.774;2023-09-30T07:04:25;4.30;;;2.43;;
12925;SDS011;6529;50.566;9.774;2023-09-30T07:06:52;5.57;;;2.30;;
12925;SDS011;6529;50.566;9.774;2023-09-30T07:09:18;4.53;;;2.30;;
12925;SDS011;6529;50.566;9.774;2023-09-30T07:11:45;5.43;;;2.30;;
12925;SDS011;6529;50.566;9.774;2023-09-30T07:14:10;5.57;;;2.63;;
12925;SDS011;6529;50.566;9.774;2023-09-30T07:16:36;5.33;;;2.63;;
12925;SDS011;6529;50.566;9.774;2023-09-30T07:19:02;3.80;;;1.87;;
12925;SDS011;6529;50.566;9.774;2023-09-30T07:21:28;7.13;;;2.80;;
12925;SDS011;6529;50.566;9.774;2023-09-30T07:23:53;7.33;;;3.03;;
12925;SDS011;6529;50.566;9.774;2023-09-30T07:26:23;6.07;;;2.63;;
12925;SDS011;6529;50.566;9.774;2023-09-30T07:28:49;6.63;;;2.80;;
12925;SDS011;6529;50.566;9.774;2023-09-30T07:31:15;6.73;;;2.70;;
12925;SDS011;6529;50.566;9.774;2023-09-30T07:33:40;6.00;;;2.70;;
12925;SDS011;6529;50.566;9.774;2023-09-30T07:36:06;5.03;;;2.90;;
12925;SDS011;6529;50.566;9.774;2023-09-30T07:38:32;7.47;;;2.73;;
12925;SDS011;6529;50.566;9.774;2023-09-30T07:40:59;6.33;;;2.90;;
12925;SDS011;6529;50.566;9.774;2023-09-30T07:43:25;7.13;;;3.10;;
12925;SDS011;6529;50.566;9.774;2023-09-30T07:45:52;6.70;;;2.90;;
12925;SDS011;6529;50.566;9.774;2023-09-30T07:48:19;6.13;;;2.80;;
12925;SDS011;6529;50.566;9.774;2023-09-30T07:50:44;5.87;;;3.10;;
12925;SDS011;6529;50.566;9.774;2023-09-30T07:53:10;7.60;;;3.00;;
12925;SDS011;6529;50.566;9.774;2023-09-30T07:55:37;8.17;;;2.60;;
12925;SDS011;6529;50.566;9.774;2023-09-30T07:58:02;7.63;;;2.57;;
12925;SDS011;6529;50.566;9.774;2023-09-30T08:00:28;6.93;;;3.00;;
12925;SDS011;6529;50.566;9.774;2023-09-30T08:02:54;5.47;;;2.40;;
12925;SDS011;6529;50.566;9.774;2023-09-30T08:05:20;5.40;;;2.50;;
12925;SDS011;6529;50.566;9.774;2023-09-30T08:07:45;6.53;;;2.70;;
12925;SDS011;6529;50.566;9.774;2023-09-30T08:10:11;6.90;;;2.83;;
12925;SDS011;6529;50.566;9.774;2023-09-30T08:12:41;5.80;;;2.60;;
12925;SDS011;6529;50.566;9.774;2023-09-30T08:15:10;5.97;;;2.80;;
12925;SDS011;6529;50.566;9.774;2023-09-30T08:17:39;5.73;;;3.03;;
12925;SDS011;6529;50.566;9.774;2023-09-30T08:20:05;5.93;;;2.67;;
12925;SDS011;6529;50.566;9.774;2023-09-30T08:22:32;7.40;;;2.43;;
12925;SDS011;6529;50.566;9.774;2023-09-30T08:24:57;6.47;;;2.40;;
12925;SDS011;6529;50.566;9.774;2023-09-30T08:27:24;5.93;;;2.30;;
12925;SDS011;6529;50.566;9.774;2023-09-30T08:29:49;5.47;;;2.63;;
12925;SDS011;6529;50.566;9.774;2023-09-30T08:32:15;5.57;;;2.30;;
12925;SDS011;6529;50.566;9.774;2023-09-30T08:34:40;6.10;;;2.30;;
12925;SDS011;6529;50.566;9.774;2023-09-30T08:37:06;6.60;;;2.53;;
12925;SDS011;6529;50.566;9.774;2023-09-30T08:39:32;6.00;;;2.10;;
12925;SDS011;6529;50.566;9.774;2023-09-30T08:42:03;3.63;;;1.93;;
12925;SDS011;6529;50.566;9.774;2023-09-30T08:44:33;7.17;;;2.50;;
12925;SDS011;6529;50.566;9.774;2023-09-30T08:47:00;6.10;;;2.10;;
12925;SDS011;6529;50.566;9.774;2023-09-30T08:49:26;6.30;;;1.90;;
12925;SDS011;6529;50.566;9.774;2023-09-30T08:51:52;6.37;;;2.20;;
12925;SDS011;6529;50.566;9.774;2023-09-30T08:54:22;6.77;;;2.10;;
12925;SDS011;6529;50.566;9.774;2023-09-30T08:56:48;5.93;;;2.50;;
12925;SDS011;6529;50.566;9.774;2023-09-30T08:59:14;4.57;;;1.93;;
12925;SDS011;6529;50.566;9.774;2023-09-30T09:01:40;7.13;;;2.30;;
12925;SDS011;6529;50.566;9.774;2023-09-30T09:04:06;8.03;;;2.20;;
12925;SDS011;6529;50.566;9.774;2023-09-30T09:06:32;6.20;;;2.50;;
12925;SDS011;6529;50.566;9.774;2023-09-30T09:09:31;4.40;;;2.40;;
12925;SDS011;6529;50.566;9.774;2023-09-30T09:11:49;6.87;;;2.30;;
12925;SDS011;6529;50.566;9.774;2023-09-30T09:14:15;4.23;;;1.90;;
12925;SDS011;6529;50.566;9.774;2023-09-30T09:16:51;5.83;;;2.13;;
12925;SDS011;6529;50.566;9.774;2023-09-30T09:19:18;6.20;;;2.40;;
12925;SDS011;6529;50.566;9.774;2023-09-30T09:29:32;4.47;;;2.13;;
12925;SDS011;6529;50.566;9.774;2023-09-30T09:34:37;4.93;;;2.40;;
12925;SDS011;6529;50.566;9.774;2023-09-30T09:37:16;4.33;;;1.70;;
12925;SDS011;6529;50.566;9.774;2023-09-30T09:39:52;6.80;;;2.10;;
12925;SDS011;6529;50.566;9.774;2023-09-30T09:44:59;4.50;;;2.10;;
12925;SDS011;6529;50.566;9.774;2023-09-30T09:47:27;5.10;;;2.30;;
12925;SDS011;6529;50.566;9.774;2023-09-30T09:49:54;5.33;;;2.03;;
12925;SDS011;6529;50.566;9.774;2023-09-30T09:52:22;6.37;;;2.00;;
12925;SDS011;6529;50.566;9.774;2023-09-30T09:54:49;4.95;;;1.85;;
12925;SDS011;6529;50.566;9.774;2023-09-30T09:57:17;4.88;;;2.08;;
12925;SDS011;6529;50.566;9.774;2023-09-30T09:59:46;7.78;;;2.50;;
12925;SDS011;6529;50.566;9.774;2023-09-30T10:02:13;3.55;;;1.70;;
12925;SDS011;6529;50.566;9.774;2023-09-30T10:04:40;5.75;;;2.05;;
12925;SDS011;6529;50.566;9.774;2023-09-30T10:07:08;6.55;;;1.90;;
12925;SDS011;6529;50.566;9.774;2023-09-30T10:09:39;3.75;;;1.90;;
12925;SDS011;6529;50.566;9.774;2023-09-30T10:12:08;5.30;;;1.95;;
12925;SDS011;6529;50.566;9.774;2023-09-30T10:14:35;4.30;;;1.70;;
12925;SDS011;6529;50.566;9.774;2023-09-30T10:17:01;4.03;;;1.90;;
12925;SDS011;6529;50.566;9.774;2023-09-30T10:19:28;4.88;;;2.03;;
12925;SDS011;6529;50.566;9.774;2023-09-30T10:24:43;5.68;;;2.05;;
12925;SDS011;6529;50.566;9.774;2023-09-30T10:38:36;5.18;;;2.20;;
12925;SDS011;6529;50.566;9.774;2023-09-30T10:40:47;6.25;;;2.38;;
12925;SDS011;6529;50.566;9.774;2023-09-30T10:43:32;6.28;;;2.20;;
12925;SDS011;6529;50.566;9.774;2023-09-30T10:48:52;4.90;;;1.85;;
12925;SDS011;6529;50.566;9.774;2023-09-30T10:51:18;5.65;;;2.10;;
12925;SDS011;6529;50.566;9.774;2023-09-30T10:56:16;5.68;;;2.03;;
12925;SDS011;6529;50.566;9.774;2023-09-30T10:58:44;5.55;;;1.90;;
12925;SDS011;6529;50.566;9.774;2023-09-30T11:01:12;5.60;;;2.38;;
12925;SDS011;6529;50.566;9.774;2023-09-30T11:03:43;4.28;;;2.00;;
12925;SDS011;6529;50.566;9.774;2023-09-30T11:06:12;6.55;;;2.00;;
12925;SDS011;6529;50.566;9.774;2023-09-30T11:08:44;5.35;;;1.98;;
12925;SDS011;6529;50.566;9.774;2023-09-30T11:11:31;5.03;;;1.80;;
12925;SDS011;6529;50.566;9.774;2023-09-30T11:14:58;4.43;;;1.90;;
12925;SDS011;6529;50.566;9.774;2023-09-30T11:16:54;4.72;;;2.28;;
12925;SDS011;6529;50.566;9.774;2023-09-30T11:19:21;5.28;;;2.00;;
12925;SDS011;6529;50.566;9.774;2023-09-30T11:21:52;7.05;;;2.10;;
12925;SDS011;6529;50.566;9.774;2023-09-30T11:24:19;4.90;;;1.98;;
12925;SDS011;6529;50.566;9.774;2023-09-30T11:26:45;4.43;;;2.10;;
12925;SDS011;6529;50.566;9.774;2023-09-30T11:31:38;6.80;;;2.30;;
12925;SDS011;6529;50.566;9.774;2023-09-30T11:34:05;3.65;;;2.00;;
12925;SDS011;6529;50.566;9.774;2023-09-30T11:36:33;6.60;;;2.25;;
12925;SDS011;6529;50.566;9.774;2023-09-30T11:39:00;4.60;;;2.22;;
12925;SDS011;6529;50.566;9.774;2023-09-30T11:41:38;7.25;;;2.10;;
12925;SDS011;6529;50.566;9.774;2023-09-30T11:44:06;5.07;;;1.92;;
12925;SDS011;6529;50.566;9.774;2023-09-30T11:46:47;5.07;;;2.33;;
12925;SDS011;6529;50.566;9.774;2023-09-30T11:51:57;3.88;;;1.95;;
12925;SDS011;6529;50.566;9.774;2023-09-30T11:54:31;3.63;;;1.75;;
12925;SDS011;6529;50.566;9.774;2023-09-30T11:56:59;4.45;;;2.25;;
12925;SDS011;6529;50.566;9.774;2023-09-30T11:59:26;5.55;;;2.03;;
12925;SDS011;6529;50.566;9.774;2023-09-30T12:01:51;5.65;;;2.20;;
12925;SDS011;6529;50.566;9.774;2023-09-30T12:04:18;4.82;;;1.98;;
12925;SDS011;6529;50.566;9.774;2023-09-30T12:06:47;4.72;;;2.13;;
12925;SDS011;6529;50.566;9.774;2023-09-30T12:09:16;4.30;;;2.10;;
12925;SDS011;6529;50.566;9.774;2023-09-30T12:11:47;5.25;;;2.03;;
12925;SDS011;6529;50.566;9.774;2023-09-30T12:14:13;5.40;;;1.70;;
12925;SDS011;6529;50.566;9.774;2023-09-30T12:16:39;5.50;;;1.90;;
12925;SDS011;6529;50.566;9.774;2023-09-30T12:19:06;4.65;;;1.80;;
12925;SDS011;6529;50.566;9.774;2023-09-30T12:21:32;4.32;;;1.80;;
12925;SDS011;6529;50.566;9.774;2023-09-30T12:23:59;4.32;;;1.95;;
12925;SDS011;6529;50.566;9.774;2023-09-30T12:26:25;5.53;;;1.73;;
12925;SDS011;6529;50.566;9.774;2023-09-30T12:28:51;6.00;;;2.20;;
12925;SDS011;6529;50.566;9.774;2023-09-30T12:31:16;4.05;;;1.75;;
12925;SDS011;6529;50.566;9.774;2023-09-30T12:33:43;4.05;;;1.70;;
12925;SDS011;6529;50.566;9.774;2023-09-30T12:36:09;3.15;;;1.60;;
12925;SDS011;6529;50.566;9.774;2023-09-30T12:38:34;3.53;;;1.80;;
12925;SDS011;6529;50.566;9.774;2023-09-30T12:41:00;3.38;;;1.55;;
12925;SDS011;6529;50.566;9.774;2023-09-30T12:43:25;3.78;;;1.63;;
12925;SDS011;6529;50.566;9.774;2023-09-30T12:45:51;3.00;;;1.60;;
12925;SDS011;6529;50.566;9.774;2023-09-30T12:48:17;5.60;;;2.00;;
12925;SDS011;6529;50.566;9.774;2023-09-30T12:50:45;4.55;;;1.98;;
12925;SDS011;6529;50.566;9.774;2023-09-30T12:53:11;4.75;;;1.73;;
12925;SDS011;6529;50.566;9.774;2023-09-30T12:55:37;4.75;;;1.80;;
12925;SDS011;6529;50.566;9.774;2023-09-30T12:58:02;3.97;;;1.60;;
12925;SDS011;6529;50.566;9.774;2023-09-30T13:00:29;3.90;;;1.75;;
12925;SDS011;6529;50.566;9.774;2023-09-30T13:02:57;3.13;;;1.60;;
12925;SDS011;6529;50.566;9.774;2023-09-30T13:05:24;4.35;;;1.70;;
12925;SDS011;6529;50.566;9.774;2023-09-30T13:07:50;3.47;;;1.95;;
12925;SDS011;6529;50.566;9.774;2023-09-30T13:10:17;2.95;;;1.52;;
12925;SDS011;6529;50.566;9.774;2023-09-30T13:12:44;3.78;;;1.48;;
12925;SDS011;6529;50.566;9.774;2023-09-30T13:15:09;3.78;;;1.70;;
12925;SDS011;6529;50.566;9.774;2023-09-30T13:17:35;2.25;;;1.30;;
12925;SDS011;6529;50.566;9.774;2023-09-30T13:20:01;3.17;;;1.50;;
12925;SDS011;6529;50.566;9.774;2023-09-30T13:22:30;5.00;;;1.63;;
12925;SDS011;6529;50.566;9.774;2023-09-30T13:24:56;3.08;;;1.50;;
12925;SDS011;6529;50.566;9.774;2023-09-30T13:27:22;4.32;;;1.50;;
12925;SDS011;6529;50.566;9.774;2023-09-30T13:29:47;2.97;;;1.67;;
12925;SDS011;6529;50.566;9.774;2023-09-30T13:32:13;2.70;;;1.20;;
12925;SDS011;6529;50.566;9.774;2023-09-30T13:34:39;3.28;;;1.52;;
12925;SDS011;6529;50.566;9.774;2023-09-30T13:37:05;3.30;;;1.40;;
12925;SDS011;6529;50.566;9.774;2023-09-30T13:39:31;3.60;;;1.40;;
12925;SDS011;6529;50.566;9.774;2023-09-30T13:41:59;3.00;;;1.50;;
12925;SDS011;6529;50.566;9.774;2023-09-30T13:44:24;3.72;;;1.50;;
12925;SDS011;6529;50.566;9.774;2023-09-30T13:46:50;3.45;;;1.40;;
12925;SDS011;6529;50.566;9.774;2023-09-30T13:49:15;4.30;;;1.48;;
12925;SDS011;6529;50.566;9.774;2023-09-30T13:51:42;3.95;;;1.45;;
12925;SDS011;6529;50.566;9.774;2023-09-30T13:54:08;3.72;;;1.48;;
12925;SDS011;6529;50.566;9.774;2023-09-30T13:56:33;4.82;;;1.60;;
12925;SDS011;6529;50.566;9.774;2023-09-30T13:58:59;4.47;;;1.90;;
12925;SDS011;6529;50.566;9.774;2023-09-30T14:01:25;4.90;;;1.67;;
12925;SDS011;6529;50.566;9.774;2023-09-30T14:03:51;3.53;;;1.80;;
12925;SDS011;6529;50.566;9.774;2023-09-30T14:06:20;3.05;;;1.50;;
12925;SDS011;6529;50.566;9.774;2023-09-30T14:08:46;3.05;;;1.58;;
12925;SDS011;6529;50.566;9.774;2023-09-30T14:11:11;2.97;;;1.48;;
12925;SDS011;6529;50.566;9.774;2023-09-30T14:13:37;3.10;;;1.20;;
12925;SDS011;6529;50.566;9.774;2023-09-30T14:16:04;3.50;;;1.63;;
12925;SDS011;6529;50.566;9.774;2023-09-30T14:18:30;2.92;;;1.58;;
12925;SDS011;6529;50.566;9.774;2023-09-30T14:20:55;3.53;;;1.45;;
12925;SDS011;6529;50.566;9.774;2023-09-30T14:23:21;3.00;;;1.50;;
12925;SDS011;6529;50.566;9.774;2023-09-30T14:25:48;5.07;;;1.73;;
12925;SDS011;6529;50.566;9.774;2023-09-30T14:28:14;4.45;;;1.80;;
12925;SDS011;6529;50.566;9.774;2023-09-30T14:30:39;4.40;;;1.50;;
12925;SDS011;6529;50.566;9.774;2023-09-30T14:33:05;3.50;;;1.50;;
12925;SDS011;6529;50.566;9.774;2023-09-30T14:35:34;2.78;;;1.40;;
12925;SDS011;6529;50.566;9.774;2023-09-30T14:37:59;2.75;;;1.23;;
12925;SDS011;6529;50.566;9.774;2023-09-30T14:40:25;4.80;;;1.58;;
12925;SDS011;6529;50.566;9.774;2023-09-30T14:42:51;4.47;;;1.80;;
12925;SDS011;6529;50.566;9.774;2023-09-30T14:45:17;3.50;;;1.73;;
12925;SDS011;6529;50.566;9.774;2023-09-30T14:47:43;4.47;;;1.90;;
12925;SDS011;6529;50.566;9.774;2023-09-30T14:50:09;3.88;;;1.60;;
12925;SDS011;6529;50.566;9.774;2023-09-30T14:52:34;3.13;;;1.52;;
12925;SDS011;6529;50.566;9.774;2023-09-30T14:55:00;3.38;;;1.58;;
12925;SDS011;6529;50.566;9.774;2023-09-30T14:57:25;2.72;;;1.30;;
12925;SDS011;6529;50.566;9.774;2023-09-30T14:59:51;3.08;;;1.35;;
12925;SDS011;6529;50.566;9.774;2023-09-30T15:02:17;2.63;;;1.60;;
12925;SDS011;6529;50.566;9.774;2023-09-30T15:04:42;3.33;;;1.40;;
12925;SDS011;6529;50.566;9.774;2023-09-30T15:07:08;3.03;;;1.67;;
12925;SDS011;6529;50.566;9.774;2023-09-30T15:09:34;2.70;;;1.40;;
12925;SDS011;6529;50.566;9.774;2023-09-30T15:12:00;3.63;;;1.40;;
12925;SDS011;6529;50.566;9.774;2023-09-30T15:14:25;3.63;;;1.50;;
12925;SDS011;6529;50.566;9.774;2023-09-30T15:16:51;3.08;;;1.40;;
12925;SDS011;6529;50.566;9.774;2023-09-30T15:19:17;3.47;;;1.50;;
12925;SDS011;6529;50.566;9.774;2023-09-30T15:21:43;3.58;;;2.00;;
12925;SDS011;6529;50.566;9.774;2023-09-30T15:24:08;2.25;;;1.55;;
12925;SDS011;6529;50.566;9.774;2023-09-30T15:26:35;3.03;;;1.30;;
12925;SDS011;6529;50.566;9.774;2023-09-30T15:29:01;3.22;;;1.38;;
12925;SDS011;6529;50.566;9.774;2023-09-30T15:31:28;2.70;;;1.45;;
12925;SDS011;6529;50.566;9.774;2023-09-30T15:33:56;3.47;;;1.67;;
12925;SDS011;6529;50.566;9.774;2023-09-30T15:36:22;3.05;;;1.55;;